Sandy Springs, South Carolina
Current Conditions -  °F | °C
As of 9:56 PM on Wednesday 22 Oct 2014 (Local Time) from KAND Reporting Station
Clear Clear  
Wind Chill: 53°   Ceiling: Unl
Heat Index: 53°   Visibility: 10mi
Dew Point: 38°   Wind: 3mph
Humidity: 57%   Direction: 40°NE
Pressure: 30.11"   Gusts: NA
Location:  34.6°N, 82.75°W
Report Text: KAND 230156Z AUTO 04003KT 10SM CLR 12/03 A3011 RMK AO2 SLP193 T01170033
Loading
Personal Weather Stations






























Interactive Weather Map
Tropical Storm Tracking
New forecast layout! Learn more

10-Day Weather Forecast

Advertisements
Track Severe Weather on mobile